createdAt,value
2018-12-31T00:04:19.381Z,17.48
2018-12-31T00:07:06.628Z,20.65
2018-12-31T00:09:53.940Z,20.00
2018-12-31T00:12:41.448Z,22.67
2018-12-31T00:15:28.674Z,18.02
2018-12-31T00:18:15.992Z,21.10
2018-12-31T00:21:03.235Z,20.40
2018-12-31T00:23:50.841Z,21.65
2018-12-31T00:26:38.336Z,18.75
2018-12-31T00:29:25.649Z,19.90
2018-12-31T00:32:13.039Z,23.52
2018-12-31T00:35:00.445Z,21.37
2018-12-31T00:37:47.720Z,20.82
2018-12-31T00:40:35.022Z,21.55
2018-12-31T00:43:02.841Z,18.30
2018-12-31T00:45:30.836Z,23.90
2018-12-31T00:48:18.804Z,26.45
2018-12-31T00:51:06.082Z,21.35
2018-12-31T00:53:53.522Z,20.77
2018-12-31T00:56:41.041Z,25.72
2018-12-31T00:59:08.888Z,22.98
2018-12-31T01:01:56.239Z,21.87
2018-12-31T01:04:43.708Z,21.55
2018-12-31T01:07:31.141Z,22.02
2018-12-31T01:10:18.439Z,21.27
2018-12-31T01:13:05.700Z,22.73
2018-12-31T01:15:53.001Z,22.70
2018-12-31T01:18:40.448Z,21.30
2018-12-31T01:21:27.687Z,20.75
2018-12-31T01:24:14.996Z,19.20
2018-12-31T01:27:02.226Z,19.62
2018-12-31T01:29:49.490Z,19.27
2018-12-31T01:32:36.750Z,22.50
2018-12-31T01:35:04.832Z,20.27
2018-12-31T01:37:52.091Z,23.25
2018-12-31T01:40:19.846Z,21.65
2018-12-31T01:43:07.184Z,22.52
2018-12-31T01:45:47.101Z,21.48
2018-12-31T01:48:34.343Z,23.27
2018-12-31T01:51:21.550Z,23.07
2018-12-31T01:54:09.002Z,22.52
2018-12-31T01:56:56.246Z,26.68
2018-12-31T01:59:43.503Z,23.40
2018-12-31T02:02:30.730Z,22.35
2018-12-31T02:05:18.016Z,24.45
2018-12-31T02:08:05.458Z,21.00
2018-12-31T02:10:33.174Z,19.00
2018-12-31T02:13:03.448Z,22.75
2018-12-31T02:15:31.178Z,21.87
2018-12-31T02:18:18.408Z,27.73
2018-12-31T02:20:58.411Z,22.22
2018-12-31T02:23:45.924Z,22.65
2018-12-31T02:26:33.132Z,23.47
2018-12-31T02:29:20.628Z,29.20
2018-12-31T02:32:07.840Z,21.37
2018-12-31T02:34:55.127Z,21.23
2018-12-31T02:37:22.869Z,23.05
2018-12-31T02:39:50.628Z,21.33
2018-12-31T02:42:18.375Z,20.30
2018-12-31T02:44:47.466Z,19.07
2018-12-31T02:47:15.285Z,18.45
2018-12-31T02:49:43.013Z,25.62
2018-12-31T02:52:10.750Z,18.23
2018-12-31T02:54:38.508Z,19.30
2018-12-31T02:57:06.642Z,18.20
2018-12-31T02:59:34.391Z,18.90
2018-12-31T03:02:02.092Z,23.77
2018-12-31T03:04:29.805Z,19.32
2018-12-31T03:06:57.552Z,20.52
2018-12-31T03:09:25.310Z,18.70
2018-12-31T03:12:12.525Z,17.40
2018-12-31T03:14:40.277Z,23.87
2018-12-31T03:17:27.526Z,17.17
2018-12-31T03:19:55.709Z,20.65
2018-12-31T03:22:23.449Z,20.05
2018-12-31T03:24:51.157Z,18.05
2018-12-31T03:27:18.961Z,16.93
2018-12-31T03:29:46.683Z,16.10
2018-12-31T03:32:14.431Z,16.97
2018-12-31T03:34:42.183Z,19.23
2018-12-31T03:37:09.915Z,20.40
2018-12-31T03:39:37.700Z,16.25
2018-12-31T03:42:05.479Z,17.05
2018-12-31T03:44:33.222Z,18.42
2018-12-31T03:47:20.450Z,15.28
2018-12-31T03:49:48.202Z,18.07
2018-12-31T03:52:15.927Z,16.23
2018-12-31T03:54:43.746Z,15.53
2018-12-31T03:57:11.463Z,19.82
2018-12-31T03:59:39.200Z,17.77
2018-12-31T04:02:06.944Z,13.60
2018-12-31T04:04:34.721Z,17.67
2018-12-31T04:07:02.466Z,14.85
2018-12-31T04:09:30.211Z,15.88
2018-12-31T04:11:57.966Z,13.38
2018-12-31T04:14:25.696Z,14.85
2018-12-31T04:16:53.408Z,15.83
2018-12-31T04:19:21.252Z,13.08
2018-12-31T04:21:49.114Z,14.50
2018-12-31T04:24:16.858Z,14.23
2018-12-31T04:26:44.733Z,14.87
2018-12-31T04:29:12.438Z,16.37
2018-12-31T04:31:40.139Z,13.43
2018-12-31T04:34:07.838Z,13.40
2018-12-31T04:36:35.644Z,16.00
2018-12-31T04:39:05.786Z,16.37
2018-12-31T04:41:33.535Z,15.05
2018-12-31T04:44:01.247Z,17.05
2018-12-31T04:46:29.050Z,17.48
2018-12-31T04:48:56.768Z,17.35
2018-12-31T04:51:24.527Z,15.48
2018-12-31T04:53:52.262Z,14.23
2018-12-31T04:56:19.993Z,15.38
2018-12-31T04:58:47.745Z,13.98
2018-12-31T05:01:15.451Z,14.33
2018-12-31T05:03:43.179Z,13.85
2018-12-31T05:06:10.956Z,15.15
2018-12-31T05:08:38.743Z,13.03
2018-12-31T05:11:06.504Z,14.65
2018-12-31T05:13:34.218Z,12.33
2018-12-31T05:16:01.965Z,14.47
2018-12-31T05:18:29.664Z,12.93
2018-12-31T05:20:57.432Z,14.33
2018-12-31T05:23:25.137Z,15.45
2018-12-31T05:25:52.898Z,17.45
2018-12-31T05:28:20.638Z,13.35
2018-12-31T05:30:48.366Z,16.67
2018-12-31T05:33:16.061Z,14.35
2018-12-31T05:35:43.789Z,14.45
2018-12-31T05:38:11.575Z,14.80
2018-12-31T05:40:39.294Z,14.80
2018-12-31T05:43:07.073Z,16.17
2018-12-31T05:45:34.869Z,14.07
2018-12-31T05:48:02.568Z,14.53
2018-12-31T05:50:30.288Z,16.23
2018-12-31T05:52:58.038Z,14.95
2018-12-31T05:55:25.741Z,16.10
2018-12-31T05:57:53.586Z,16.20
2018-12-31T06:00:21.361Z,17.55
2018-12-31T06:02:49.060Z,19.27
2018-12-31T06:05:16.775Z,16.55
2018-12-31T06:07:44.490Z,16.67
2018-12-31T06:10:12.177Z,18.65
2018-12-31T06:12:39.943Z,17.40
2018-12-31T06:15:07.682Z,16.20
2018-12-31T06:17:35.400Z,17.32
2018-12-31T06:20:03.113Z,16.50
2018-12-31T06:22:30.872Z,16.37
2018-12-31T06:24:58.612Z,16.10
2018-12-31T06:27:26.356Z,18.07
2018-12-31T06:29:54.057Z,18.90
2018-12-31T06:32:21.809Z,18.15
2018-12-31T06:34:49.552Z,15.32
2018-12-31T06:37:17.274Z,19.25
2018-12-31T06:39:44.984Z,20.90
2018-12-31T06:42:15.670Z,19.77
2018-12-31T06:44:43.364Z,19.95
2018-12-31T06:47:11.146Z,20.23
2018-12-31T06:49:38.818Z,19.37
2018-12-31T06:52:06.556Z,17.50
2018-12-31T06:54:34.273Z,15.85
2018-12-31T06:57:02.027Z,18.20
2018-12-31T06:59:29.754Z,22.40
2018-12-31T07:01:57.503Z,18.67
2018-12-31T07:04:25.325Z,18.57
2018-12-31T07:06:55.111Z,19.67
2018-12-31T07:09:22.879Z,21.93
2018-12-31T07:11:50.663Z,22.13
2018-12-31T07:14:18.396Z,24.43
2018-12-31T07:16:46.296Z,25.45
2018-12-31T07:19:13.991Z,25.60
2018-12-31T07:21:41.753Z,26.10
2018-12-31T07:24:09.532Z,28.40
2018-12-31T07:26:37.261Z,29.77
2018-12-31T07:29:04.972Z,22.75
2018-12-31T07:31:32.697Z,24.67
2018-12-31T07:34:00.461Z,26.17
2018-12-31T07:36:28.216Z,24.60
2018-12-31T07:38:56.003Z,28.70
2018-12-31T07:41:23.817Z,29.82
2018-12-31T07:43:51.608Z,30.77
2018-12-31T07:46:20.029Z,31.62
2018-12-31T07:48:47.766Z,31.15
2018-12-31T07:51:15.488Z,28.20
2018-12-31T07:53:43.345Z,29.18
2018-12-31T07:56:11.117Z,31.25
2018-12-31T07:58:38.871Z,32.55
2018-12-31T08:01:06.588Z,28.75
2018-12-31T08:03:34.345Z,26.80
2018-12-31T08:06:02.103Z,26.42
2018-12-31T08:08:29.893Z,26.00
2018-12-31T08:10:57.704Z,25.70
2018-12-31T08:13:25.517Z,22.48
2018-12-31T08:15:53.252Z,23.62
2018-12-31T08:18:20.965Z,24.10
2018-12-31T08:20:48.705Z,29.82
2018-12-31T08:23:16.461Z,29.75
2018-12-31T08:25:44.336Z,28.50
2018-12-31T08:28:12.111Z,24.90
2018-12-31T08:30:40.026Z,24.23
2018-12-31T08:33:07.819Z,22.30
2018-12-31T08:35:35.622Z,21.90
2018-12-31T08:38:03.502Z,24.57
2018-12-31T08:40:31.335Z,23.45
2018-12-31T08:42:59.119Z,23.95
2018-12-31T08:45:26.908Z,22.30
2018-12-31T08:47:54.646Z,24.50
2018-12-31T08:50:22.398Z,22.58
2018-12-31T08:52:50.165Z,25.55
2018-12-31T08:55:17.901Z,23.62
2018-12-31T08:57:45.654Z,24.02
2018-12-31T09:00:13.431Z,20.85
2018-12-31T09:02:41.177Z,23.27
2018-12-31T09:05:08.972Z,20.97
2018-12-31T09:07:36.809Z,25.70
2018-12-31T09:10:04.784Z,24.82
2018-12-31T09:12:32.564Z,24.80
2018-12-31T09:15:00.383Z,23.65
2018-12-31T09:17:28.165Z,23.73
2018-12-31T09:19:55.967Z,21.52
2018-12-31T09:22:23.726Z,22.90
2018-12-31T09:24:51.513Z,21.40
2018-12-31T09:27:19.260Z,23.47
2018-12-31T09:29:47.060Z,27.07
2018-12-31T09:32:14.939Z,26.97
2018-12-31T09:34:42.724Z,24.80
2018-12-31T09:37:10.602Z,23.40
2018-12-31T09:39:38.454Z,24.65
2018-12-31T09:42:06.302Z,24.40
2018-12-31T09:44:34.083Z,22.98
2018-12-31T09:47:01.876Z,23.40
2018-12-31T09:49:29.707Z,21.17
2018-12-31T09:51:57.512Z,24.12
2018-12-31T09:54:25.367Z,24.15
2018-12-31T09:56:53.187Z,23.73
2018-12-31T09:59:20.977Z,25.17
2018-12-31T10:01:48.852Z,26.50
2018-12-31T10:04:16.615Z,24.80
2018-12-31T10:06:44.512Z,28.98
2018-12-31T10:09:12.415Z,25.12
2018-12-31T10:11:40.246Z,24.80
2018-12-31T10:14:08.031Z,24.47
2018-12-31T10:16:35.907Z,25.05
2018-12-31T10:19:03.945Z,22.90
2018-12-31T10:21:31.686Z,22.85
2018-12-31T10:23:59.459Z,22.90
2018-12-31T10:26:27.273Z,25.97
2018-12-31T10:28:55.054Z,23.55
2018-12-31T10:31:22.791Z,29.18
2018-12-31T10:33:50.552Z,23.18
2018-12-31T10:36:18.376Z,22.73
2018-12-31T10:38:51.094Z,24.55
2018-12-31T10:41:15.750Z,23.65
2018-12-31T10:43:43.641Z,22.87
2018-12-31T10:46:20.361Z,21.60
2018-12-31T10:48:48.083Z,23.83
2018-12-31T10:51:15.901Z,23.57
2018-12-31T10:53:43.762Z,21.82
2018-12-31T10:56:11.640Z,23.10
2018-12-31T10:58:39.423Z,24.18
2018-12-31T11:01:07.274Z,21.02
2018-12-31T11:03:35.007Z,20.40
2018-12-31T11:06:02.778Z,23.83
2018-12-31T11:08:30.569Z,20.80
2018-12-31T11:10:59.559Z,24.30
2018-12-31T11:13:27.389Z,20.30
2018-12-31T11:15:55.298Z,22.82
2018-12-31T11:18:23.217Z,22.77
2018-12-31T11:20:50.966Z,17.87
2018-12-31T11:23:18.740Z,20.33
2018-12-31T11:25:46.462Z,20.97
2018-12-31T11:28:14.373Z,22.35
2018-12-31T11:30:42.276Z,23.50
2018-12-31T11:33:10.080Z,17.55
2018-12-31T11:35:39.866Z,25.10
2018-12-31T11:38:07.647Z,22.87
2018-12-31T11:40:35.465Z,19.35
2018-12-31T11:43:03.253Z,16.32
2018-12-31T11:45:30.979Z,17.50
2018-12-31T11:47:58.780Z,15.88
2018-12-31T11:50:26.601Z,19.27
2018-12-31T11:52:54.549Z,20.73
2018-12-31T11:55:22.352Z,19.20
2018-12-31T11:57:50.145Z,16.60
2018-12-31T12:00:17.954Z,17.00
2018-12-31T12:02:45.691Z,20.27
2018-12-31T12:05:13.488Z,16.87
2018-12-31T12:07:41.244Z,16.20
2018-12-31T12:10:09.077Z,17.93
2018-12-31T12:12:36.829Z,20.97
2018-12-31T12:15:05.062Z,19.37
2018-12-31T12:17:32.798Z,19.53
2018-12-31T12:20:00.536Z,20.12
2018-12-31T12:22:28.741Z,20.30
2018-12-31T12:24:56.572Z,18.30
2018-12-31T12:27:24.303Z,18.32
2018-12-31T12:29:52.106Z,18.37
2018-12-31T12:32:19.964Z,20.52
2018-12-31T12:34:47.756Z,18.97
2018-12-31T12:37:15.505Z,19.73
2018-12-31T12:39:43.274Z,17.37
2018-12-31T12:42:11.087Z,20.57
2018-12-31T12:44:41.671Z,18.30
2018-12-31T12:47:09.493Z,16.87
2018-12-31T12:49:42.332Z,21.57
2018-12-31T12:52:10.151Z,17.13
2018-12-31T12:54:37.924Z,16.67
2018-12-31T12:57:05.976Z,15.93
2018-12-31T12:59:33.824Z,18.90
2018-12-31T13:02:01.725Z,21.13
2018-12-31T13:04:29.548Z,16.97
2018-12-31T13:06:57.368Z,17.53
2018-12-31T13:09:25.103Z,21.60
2018-12-31T13:11:53.024Z,18.77
2018-12-31T13:14:22.772Z,16.80
2018-12-31T13:16:50.583Z,18.07
2018-12-31T13:19:18.418Z,16.13
2018-12-31T13:21:46.247Z,16.47
2018-12-31T13:24:14.041Z,17.10
2018-12-31T13:26:43.765Z,16.50
2018-12-31T13:29:11.450Z,15.47
2018-12-31T13:31:39.215Z,15.47
2018-12-31T13:34:07.000Z,15.30
2018-12-31T13:36:34.838Z,17.10
2018-12-31T13:39:04.169Z,16.33
2018-12-31T13:41:34.684Z,17.83
2018-12-31T13:44:02.479Z,14.30
2018-12-31T13:46:30.342Z,15.70
2018-12-31T13:48:58.243Z,15.10
2018-12-31T13:51:26.029Z,16.03
2018-12-31T13:53:54.417Z,16.47
2018-12-31T13:56:22.276Z,18.57
2018-12-31T13:58:50.119Z,18.40
2018-12-31T14:01:18.054Z,16.77
2018-12-31T14:03:45.858Z,19.73
2018-12-31T14:06:13.807Z,18.13
2018-12-31T14:08:41.617Z,22.20
2018-12-31T14:11:09.496Z,19.17
2018-12-31T14:13:37.307Z,18.87
2018-12-31T14:16:24.779Z,24.03
2018-12-31T14:18:52.622Z,20.90
2018-12-31T14:21:20.392Z,19.57
2018-12-31T14:23:48.190Z,21.63
2018-12-31T14:26:16.041Z,22.07
2018-12-31T14:28:43.948Z,18.53
2018-12-31T14:31:11.721Z,21.27
2018-12-31T14:33:39.474Z,25.93
2018-12-31T14:36:07.218Z,21.57
2018-12-31T14:38:34.987Z,20.50
2018-12-31T14:41:02.721Z,19.60
2018-12-31T14:43:31.040Z,18.27
2018-12-31T14:45:58.822Z,20.40
2018-12-31T14:48:26.696Z,19.53
2018-12-31T14:50:54.472Z,28.80
2018-12-31T14:53:22.375Z,18.67
2018-12-31T14:55:50.224Z,18.73
2018-12-31T14:58:18.090Z,19.53
2018-12-31T15:00:45.913Z,19.55
2018-12-31T15:03:13.814Z,23.05
2018-12-31T15:05:41.696Z,22.77
2018-12-31T15:08:09.522Z,23.23
2018-12-31T15:10:37.515Z,24.80
2018-12-31T15:13:05.571Z,21.93
2018-12-31T15:15:33.556Z,24.70
2018-12-31T15:18:01.517Z,24.27
2018-12-31T15:20:29.312Z,23.67
2018-12-31T15:22:57.559Z,26.50
2018-12-31T15:25:25.361Z,24.90
2018-12-31T15:27:53.253Z,25.25
2018-12-31T15:30:21.062Z,24.23
2018-12-31T15:32:48.873Z,25.25
2018-12-31T15:35:16.716Z,22.27
2018-12-31T15:37:44.522Z,20.40
2018-12-31T15:40:12.351Z,25.03
2018-12-31T15:42:40.275Z,28.43
2018-12-31T15:45:08.080Z,21.30
2018-12-31T15:47:38.937Z,18.30
2018-12-31T15:50:07.549Z,18.37
2018-12-31T15:52:35.399Z,20.00
2018-12-31T15:55:03.512Z,16.73
2018-12-31T15:57:50.791Z,18.97
2018-12-31T16:00:24.777Z,19.60
2018-12-31T16:02:52.641Z,21.20
2018-12-31T16:05:20.538Z,19.50
2018-12-31T16:07:49.195Z,15.40
2018-12-31T16:10:16.985Z,16.00
2018-12-31T16:12:45.144Z,17.43
2018-12-31T16:15:12.960Z,21.00
2018-12-31T16:17:40.876Z,19.33
2018-12-31T16:20:08.740Z,18.20
2018-12-31T16:22:36.489Z,19.53
2018-12-31T16:25:04.406Z,16.37
2018-12-31T16:27:32.182Z,17.50
2018-12-31T16:30:00.147Z,14.73
2018-12-31T16:32:28.052Z,20.33
2018-12-31T16:34:55.958Z,20.50
2018-12-31T16:37:23.732Z,16.67
2018-12-31T16:39:51.868Z,18.90
2018-12-31T16:42:19.676Z,24.23
2018-12-31T16:44:47.468Z,20.23
2018-12-31T16:47:15.207Z,21.53
2018-12-31T16:49:43.138Z,17.50
2018-12-31T16:52:11.002Z,21.70
2018-12-31T16:54:38.869Z,24.03
2018-12-31T16:57:06.665Z,25.80
2018-12-31T16:59:34.533Z,24.07
2018-12-31T17:02:02.341Z,28.93
2018-12-31T17:04:32.828Z,30.37
2018-12-31T17:07:00.617Z,24.63
2018-12-31T17:09:28.384Z,28.07
2018-12-31T17:11:56.423Z,24.07
2018-12-31T17:14:24.282Z,22.83
2018-12-31T17:16:52.211Z,24.97
2018-12-31T17:19:20.063Z,34.20
2018-12-31T17:21:47.869Z,36.67
2018-12-31T17:24:15.704Z,38.57
2018-12-31T17:26:43.535Z,51.40
2018-12-31T17:29:11.325Z,44.73
2018-12-31T17:31:39.168Z,45.67
2018-12-31T17:34:07.435Z,54.50
2018-12-31T17:36:35.316Z,62.70
2018-12-31T17:39:06.782Z,51.17
2018-12-31T17:41:34.631Z,41.70
2018-12-31T17:44:03.852Z,39.10
2018-12-31T17:46:31.660Z,41.20
2018-12-31T17:48:59.506Z,54.63
2018-12-31T17:51:27.606Z,46.03
2018-12-31T17:53:55.376Z,38.97
2018-12-31T17:56:23.777Z,35.30
2018-12-31T17:58:51.683Z,34.90
2018-12-31T18:01:19.862Z,28.90
2018-12-31T18:03:47.686Z,32.80
2018-12-31T18:06:15.490Z,31.40
2018-12-31T18:08:43.260Z,29.47
2018-12-31T18:11:11.053Z,27.30
2018-12-31T18:13:38.966Z,29.57
2018-12-31T18:16:06.745Z,34.73
2018-12-31T18:18:34.522Z,25.97
2018-12-31T18:21:02.438Z,25.53
2018-12-31T18:23:30.253Z,26.10
2018-12-31T18:25:58.045Z,24.50
2018-12-31T18:28:26.292Z,25.47
2018-12-31T18:30:54.163Z,26.40
2018-12-31T18:33:22.023Z,23.63
2018-12-31T18:35:49.973Z,23.27
2018-12-31T18:38:17.849Z,21.47
2018-12-31T18:40:45.796Z,24.20
2018-12-31T18:43:13.758Z,22.63
2018-12-31T18:45:41.753Z,24.30
2018-12-31T18:48:09.742Z,22.33
2018-12-31T18:50:37.643Z,28.98
2018-12-31T18:53:05.528Z,24.77
2018-12-31T18:55:33.721Z,28.10
2018-12-31T18:58:01.609Z,33.20
2018-12-31T19:01:06.917Z,23.43
2018-12-31T19:06:25.942Z,28.02
2018-12-31T19:08:54.215Z,22.40
2018-12-31T19:11:41.990Z,23.57
2018-12-31T19:14:29.571Z,25.70
2018-12-31T19:17:10.190Z,31.50
2018-12-31T19:19:38.086Z,25.20
2018-12-31T19:22:06.073Z,25.10
2018-12-31T19:24:34.125Z,26.20
2018-12-31T19:27:02.001Z,25.40
2018-12-31T19:29:31.704Z,28.50
2018-12-31T19:31:59.775Z,27.87
2018-12-31T19:34:28.969Z,25.10
2018-12-31T19:36:56.816Z,28.37
2018-12-31T19:39:24.686Z,29.63
2018-12-31T19:41:52.585Z,27.27
2018-12-31T19:44:20.472Z,26.93
2018-12-31T19:46:48.357Z,29.70
2018-12-31T19:49:17.685Z,32.35
2018-12-31T19:51:45.542Z,27.82
2018-12-31T19:54:13.463Z,30.20
2018-12-31T19:56:41.572Z,29.30
2018-12-31T19:59:12.708Z,29.52
2018-12-31T20:01:40.733Z,26.12
2018-12-31T20:04:08.592Z,29.30
2018-12-31T20:07:01.242Z,29.27
2018-12-31T20:09:45.105Z,25.60
2018-12-31T20:12:13.048Z,26.25
2018-12-31T20:14:40.925Z,31.20
2018-12-31T20:17:21.715Z,32.23
2018-12-31T20:19:49.584Z,33.15
2018-12-31T20:22:17.503Z,34.30
2018-12-31T20:24:45.406Z,32.48
2018-12-31T20:27:33.501Z,30.50
2018-12-31T20:30:21.401Z,32.17
2018-12-31T20:33:09.250Z,29.10
2018-12-31T20:35:56.678Z,28.92
2018-12-31T20:38:44.382Z,29.90
2018-12-31T20:41:32.161Z,31.17
2018-12-31T20:44:19.557Z,27.13
2018-12-31T20:47:06.928Z,31.70
2018-12-31T20:49:56.547Z,31.25
2018-12-31T20:52:24.615Z,35.55
2018-12-31T20:54:52.437Z,30.52
2018-12-31T20:57:39.785Z,36.15
2018-12-31T21:00:27.384Z,36.88
2018-12-31T21:03:14.782Z,34.98
2018-12-31T21:06:02.709Z,29.63
2018-12-31T21:08:50.244Z,34.83
2018-12-31T21:11:37.968Z,33.63
2018-12-31T21:14:25.981Z,34.38
2018-12-31T21:17:06.221Z,32.73
2018-12-31T21:19:53.981Z,36.17
2018-12-31T21:22:41.568Z,36.60
2018-12-31T21:25:29.016Z,40.17
2018-12-31T21:28:16.692Z,37.37
2018-12-31T21:31:04.224Z,35.17
2018-12-31T21:33:51.849Z,38.02
2018-12-31T21:36:39.168Z,44.25
2018-12-31T21:39:26.667Z,37.90
2018-12-31T21:41:54.598Z,40.08
2018-12-31T21:44:42.442Z,33.97
2018-12-31T21:47:10.771Z,35.93
2018-12-31T21:49:58.307Z,44.77
2018-12-31T21:52:47.853Z,39.05
2018-12-31T21:55:35.624Z,35.17
2018-12-31T21:58:05.465Z,38.90
2018-12-31T22:00:53.095Z,38.23
2018-12-31T22:03:40.656Z,47.43
2018-12-31T22:06:28.231Z,40.17
2018-12-31T22:08:56.043Z,39.88
2018-12-31T22:11:23.948Z,36.37
2018-12-31T22:14:11.673Z,34.65
2018-12-31T22:16:52.273Z,38.58
2018-12-31T22:19:39.855Z,41.17
2018-12-31T22:22:27.206Z,39.75
2018-12-31T22:25:14.680Z,36.17
2018-12-31T22:28:02.202Z,37.00
2018-12-31T22:30:30.017Z,41.50
2018-12-31T22:33:17.544Z,48.77
2018-12-31T22:36:04.840Z,43.63
2018-12-31T22:38:52.614Z,51.88
2018-12-31T22:41:40.229Z,48.33
2018-12-31T22:44:08.064Z,76.30
2018-12-31T22:46:55.383Z,60.43
2018-12-31T22:49:23.214Z,61.30
2018-12-31T22:51:50.958Z,66.37
2018-12-31T22:54:38.283Z,70.85
2018-12-31T22:57:25.598Z,129.23
2018-12-31T22:59:53.474Z,80.60
2018-12-31T23:02:40.769Z,64.93
2018-12-31T23:05:30.727Z,111.45
2018-12-31T23:08:18.327Z,163.05
2018-12-31T23:11:05.777Z,226.63
2018-12-31T23:13:46.761Z,344.03
2018-12-31T23:16:34.062Z,449.18
2018-12-31T23:19:21.689Z,561.12
2018-12-31T23:22:09.342Z,553.20
2018-12-31T23:24:56.926Z,557.42
2018-12-31T23:27:24.752Z,614.78
2018-12-31T23:29:52.595Z,680.10
2018-12-31T23:32:20.429Z,696.72
2018-12-31T23:34:48.490Z,601.77
2018-12-31T23:37:16.513Z,459.27
2018-12-31T23:39:44.372Z,433.20
2018-12-31T23:42:12.648Z,404.85
2018-12-31T23:44:40.539Z,500.02
2018-12-31T23:47:28.054Z,477.05
2018-12-31T23:49:56.009Z,432.50
2018-12-31T23:52:24.483Z,372.63
2018-12-31T23:54:52.300Z,325.93
2018-12-31T23:57:20.188Z,309.17
2018-12-31T23:59:48.080Z,244.40
